createdAt,value
2023-08-08T00:00:44.992Z,14.75
2023-08-08T00:03:11.865Z,14.78
2023-08-08T00:05:38.635Z,14.68
2023-08-08T00:08:05.615Z,14.74
2023-08-08T00:10:32.317Z,14.75
2023-08-08T00:12:59.166Z,14.88
2023-08-08T00:15:25.863Z,14.86
2023-08-08T00:17:53.380Z,14.91
2023-08-08T00:20:20.080Z,14.87
2023-08-08T00:22:46.834Z,14.73
2023-08-08T00:25:13.595Z,14.65
2023-08-08T00:27:44.832Z,14.56
2023-08-08T00:30:13.453Z,14.61
2023-08-08T00:32:40.643Z,14.74
2023-08-08T00:35:07.597Z,14.66
2023-08-08T00:37:34.420Z,14.72
2023-08-08T00:40:01.124Z,14.66
2023-08-08T00:42:27.851Z,14.66
2023-08-08T00:44:54.606Z,14.69
2023-08-08T00:47:21.368Z,14.76
2023-08-08T00:49:49.902Z,14.67
2023-08-08T00:52:16.802Z,14.60
2023-08-08T00:54:43.547Z,14.51
2023-08-08T00:57:10.250Z,14.58
2023-08-08T00:59:36.907Z,14.54
2023-08-08T01:02:03.752Z,14.53
2023-08-08T01:04:30.516Z,14.49
2023-08-08T01:07:25.327Z,14.57
2023-08-08T01:10:19.049Z,14.68
2023-08-08T01:12:48.055Z,14.52
2023-08-08T01:15:14.991Z,14.39
2023-08-08T01:17:43.092Z,14.45
2023-08-08T01:20:11.361Z,14.45
2023-08-08T01:23:03.802Z,14.38
2023-08-08T01:25:31.433Z,14.40
2023-08-08T01:27:58.202Z,14.33
2023-08-08T01:30:24.938Z,14.42
2023-08-08T01:32:51.691Z,14.50
2023-08-08T01:35:18.728Z,14.44
2023-08-08T01:37:49.708Z,14.53
2023-08-08T01:40:18.186Z,14.50
2023-08-08T01:42:49.407Z,14.41
2023-08-08T01:45:19.702Z,14.33
2023-08-08T01:47:52.846Z,14.25
2023-08-08T01:50:19.552Z,14.23
2023-08-08T01:52:46.455Z,14.10
2023-08-08T01:55:13.465Z,14.06
2023-08-08T01:57:40.271Z,14.23
2023-08-08T02:00:09.162Z,14.21
2023-08-08T02:02:36.927Z,14.43
2023-08-08T02:05:04.114Z,14.37
2023-08-08T02:07:30.887Z,14.44
2023-08-08T02:09:57.650Z,14.58
2023-08-08T02:12:24.353Z,14.76
2023-08-08T02:14:51.160Z,14.65
2023-08-08T02:17:17.860Z,14.67
2023-08-08T02:19:44.594Z,14.74
2023-08-08T02:22:11.296Z,14.77
2023-08-08T02:24:38.184Z,14.72
2023-08-08T02:27:05.499Z,14.73
2023-08-08T02:29:32.183Z,14.76
2023-08-08T02:32:00.754Z,14.72
2023-08-08T02:34:27.772Z,14.67
2023-08-08T02:36:54.450Z,14.58
2023-08-08T02:39:21.146Z,14.38
2023-08-08T02:41:47.905Z,14.42
2023-08-08T02:44:14.673Z,14.45
2023-08-08T02:46:41.419Z,14.30
2023-08-08T02:49:08.090Z,14.30
2023-08-08T02:51:34.756Z,14.16
2023-08-08T02:54:01.467Z,14.18
2023-08-08T02:56:28.234Z,14.36
2023-08-08T02:58:55.152Z,15.09
2023-08-08T03:01:23.107Z,15.53
2023-08-08T03:03:49.928Z,16.13
2023-08-08T03:06:16.747Z,16.24
2023-08-08T03:08:43.675Z,16.45
2023-08-08T03:11:10.572Z,16.83
2023-08-08T03:13:38.417Z,16.68
2023-08-08T03:16:05.591Z,17.17
2023-08-08T03:18:32.312Z,17.28
2023-08-08T03:20:59.040Z,17.04
2023-08-08T03:23:25.929Z,16.93
2023-08-08T03:25:52.831Z,17.34
2023-08-08T03:28:19.540Z,17.26
2023-08-08T03:30:46.297Z,17.65
2023-08-08T03:33:13.153Z,18.04
2023-08-08T03:35:39.908Z,17.58
2023-08-08T03:38:06.671Z,17.22
2023-08-08T03:40:33.468Z,17.23
2023-08-08T03:43:00.325Z,17.57
2023-08-08T03:45:27.101Z,18.00
2023-08-08T03:47:53.835Z,17.45
2023-08-08T03:50:20.601Z,17.99
2023-08-08T03:52:47.378Z,18.75
2023-08-08T03:55:14.165Z,17.91
2023-08-08T03:57:40.857Z,18.46
2023-08-08T04:00:09.694Z,17.98
2023-08-08T04:02:36.481Z,17.79
2023-08-08T04:05:03.792Z,17.61
2023-08-08T04:07:30.500Z,16.96
2023-08-08T04:09:57.143Z,17.37
2023-08-08T04:12:23.834Z,17.54
2023-08-08T04:14:50.508Z,18.10
2023-08-08T04:17:17.216Z,17.63
2023-08-08T04:19:43.840Z,18.25
2023-08-08T04:22:10.825Z,18.40
2023-08-08T04:24:37.661Z,18.17
2023-08-08T04:27:04.945Z,19.27
2023-08-08T04:29:31.685Z,19.58
2023-08-08T04:31:58.813Z,18.85
2023-08-08T04:34:25.668Z,19.81
2023-08-08T04:36:52.300Z,18.73
2023-08-08T04:39:18.972Z,18.86
2023-08-08T04:41:45.603Z,18.23
2023-08-08T04:44:12.338Z,18.20
2023-08-08T04:46:39.008Z,18.27
2023-08-08T04:49:05.652Z,17.61
2023-08-08T04:51:32.340Z,18.23
2023-08-08T04:53:59.079Z,17.18
2023-08-08T04:56:26.224Z,17.71
2023-08-08T04:58:54.021Z,18.44
2023-08-08T05:01:21.787Z,18.67
2023-08-08T05:03:49.540Z,19.34
2023-08-08T05:06:16.303Z,19.42
2023-08-08T05:08:43.307Z,18.33
2023-08-08T05:11:09.969Z,18.89
2023-08-08T05:13:36.619Z,18.71
2023-08-08T05:16:03.293Z,18.83
2023-08-08T05:18:29.983Z,18.22
2023-08-08T05:20:56.724Z,19.31
2023-08-08T05:23:23.443Z,19.29
2023-08-08T05:25:50.145Z,18.54
2023-08-08T05:28:16.963Z,18.75
2023-08-08T05:30:43.714Z,19.18
2023-08-08T05:33:10.433Z,19.47
2023-08-08T05:35:37.127Z,18.76
2023-08-08T05:38:04.539Z,19.29
2023-08-08T05:40:31.348Z,18.87
2023-08-08T05:42:58.036Z,18.85
2023-08-08T05:45:24.911Z,19.23
2023-08-08T05:47:51.651Z,19.74
2023-08-08T05:50:18.479Z,19.54
2023-08-08T05:52:45.357Z,19.15
2023-08-08T05:55:12.162Z,18.99
2023-08-08T05:57:38.976Z,18.97
2023-08-08T06:00:06.707Z,18.93
2023-08-08T06:02:33.416Z,19.13
2023-08-08T06:05:00.210Z,19.53
2023-08-08T06:07:27.014Z,19.57
2023-08-08T06:09:53.717Z,19.27
2023-08-08T06:12:20.387Z,18.98
2023-08-08T06:14:47.185Z,19.38
2023-08-08T06:17:13.844Z,19.32
2023-08-08T06:19:40.543Z,19.19
2023-08-08T06:22:07.239Z,18.68
2023-08-08T06:24:33.983Z,18.78
2023-08-08T06:27:01.085Z,18.76
2023-08-08T06:29:28.789Z,19.07
2023-08-08T06:31:55.865Z,19.01
2023-08-08T06:34:22.800Z,19.27
2023-08-08T06:36:49.595Z,19.14
2023-08-08T06:39:16.347Z,19.10
2023-08-08T06:41:43.087Z,19.00
2023-08-08T06:44:09.993Z,19.57
2023-08-08T06:46:36.699Z,19.43
2023-08-08T06:49:03.761Z,19.94
2023-08-08T06:51:30.427Z,20.40
2023-08-08T06:53:59.598Z,19.96
2023-08-08T06:56:27.495Z,19.88
2023-08-08T06:58:54.973Z,20.27
2023-08-08T07:01:21.803Z,20.20
2023-08-08T07:03:48.518Z,20.52
2023-08-08T07:06:18.522Z,20.42
2023-08-08T07:08:45.220Z,20.61
2023-08-08T07:11:11.961Z,20.35
2023-08-08T07:13:38.911Z,20.26
2023-08-08T07:16:05.723Z,20.03
2023-08-08T07:18:32.486Z,20.29
2023-08-08T07:20:59.175Z,20.30
2023-08-08T07:23:25.854Z,20.15
2023-08-08T07:25:52.907Z,19.82
2023-08-08T07:28:19.757Z,20.14
2023-08-08T07:30:46.703Z,19.98
2023-08-08T07:33:14.935Z,20.10
2023-08-08T07:35:41.765Z,20.33
2023-08-08T07:38:08.556Z,20.67
2023-08-08T07:40:35.790Z,20.87
2023-08-08T07:43:02.499Z,20.94
2023-08-08T07:45:29.171Z,20.64
2023-08-08T07:47:56.271Z,21.26
2023-08-08T07:50:23.397Z,21.60
2023-08-08T07:52:50.137Z,21.35
2023-08-08T07:55:16.913Z,21.79
2023-08-08T07:57:43.557Z,21.40
2023-08-08T08:00:13.454Z,21.94
2023-08-08T08:02:44.211Z,21.73
2023-08-08T08:05:11.139Z,21.30
2023-08-08T08:07:39.121Z,21.33
2023-08-08T08:10:08.032Z,20.91
2023-08-08T08:12:34.834Z,21.00
2023-08-08T08:15:02.151Z,21.31
2023-08-08T08:17:29.535Z,21.20
2023-08-08T08:19:56.446Z,20.83
2023-08-08T08:22:23.228Z,21.41
2023-08-08T08:24:49.945Z,20.77
2023-08-08T08:27:16.774Z,21.47
2023-08-08T08:29:43.447Z,21.13
2023-08-08T08:32:10.271Z,21.10
2023-08-08T08:34:37.609Z,21.02
2023-08-08T08:37:04.461Z,20.86
2023-08-08T08:39:31.110Z,20.92
2023-08-08T08:42:04.436Z,21.23
2023-08-08T08:44:32.542Z,21.17
2023-08-08T08:47:02.744Z,21.60
2023-08-08T08:49:32.863Z,21.43
2023-08-08T08:52:02.549Z,21.43
2023-08-08T08:54:30.924Z,21.38
2023-08-08T08:56:58.535Z,21.40
2023-08-08T08:59:25.277Z,21.00
2023-08-08T09:01:52.537Z,21.31
2023-08-08T09:04:21.629Z,21.10
2023-08-08T09:06:49.272Z,21.26
2023-08-08T09:09:17.421Z,21.16
2023-08-08T09:11:49.553Z,21.40
2023-08-08T09:14:20.514Z,21.61
2023-08-08T09:16:48.336Z,21.47
2023-08-08T09:19:16.083Z,21.31
2023-08-08T09:21:42.826Z,21.38
2023-08-08T09:24:09.721Z,21.55
2023-08-08T09:26:36.626Z,21.64
2023-08-08T09:29:04.401Z,22.44
2023-08-08T09:31:31.683Z,23.18
2023-08-08T09:34:03.073Z,22.79
2023-08-08T09:36:31.725Z,22.04
2023-08-08T09:39:00.649Z,21.71
2023-08-08T09:41:27.512Z,22.16
2023-08-08T09:43:54.540Z,22.31
2023-08-08T09:46:21.549Z,22.17
2023-08-08T09:48:48.835Z,22.46
2023-08-08T09:51:16.086Z,21.64
2023-08-08T09:53:43.111Z,21.56
2023-08-08T09:56:09.869Z,21.70
2023-08-08T09:58:36.641Z,21.93
2023-08-08T10:01:05.933Z,21.78
2023-08-08T10:03:33.603Z,21.69
2023-08-08T10:06:00.555Z,22.09
2023-08-08T10:08:27.314Z,22.47
2023-08-08T10:10:54.188Z,22.00
2023-08-08T10:13:25.377Z,21.88
2023-08-08T10:15:52.807Z,22.28
2023-08-08T10:18:22.013Z,21.59
2023-08-08T10:20:50.476Z,21.84
2023-08-08T10:23:20.955Z,22.22
2023-08-08T10:25:49.933Z,21.93
2023-08-08T10:28:26.730Z,22.19
2023-08-08T10:30:55.637Z,22.25
2023-08-08T10:33:24.702Z,22.48
2023-08-08T10:35:57.429Z,22.54
2023-08-08T10:38:25.524Z,22.61
2023-08-08T10:40:59.271Z,21.97
2023-08-08T10:43:30.420Z,22.14
2023-08-08T10:46:12.882Z,22.29
2023-08-08T10:48:51.977Z,21.93
2023-08-08T10:51:19.003Z,22.38
2023-08-08T10:53:46.433Z,22.43
2023-08-08T10:56:16.076Z,22.53
2023-08-08T10:58:48.409Z,22.84
2023-08-08T11:01:15.589Z,22.34
2023-08-08T11:03:42.764Z,22.53
2023-08-08T11:06:11.028Z,22.44
2023-08-08T11:08:42.652Z,22.94
2023-08-08T11:11:09.325Z,22.24
2023-08-08T11:13:36.026Z,22.72
2023-08-08T11:16:03.399Z,22.21
2023-08-08T11:18:31.157Z,22.87
2023-08-08T11:21:12.832Z,22.06
2023-08-08T11:23:47.533Z,22.19
2023-08-08T11:28:57.003Z,22.72
2023-08-08T11:31:24.497Z,23.01
2023-08-08T11:33:51.326Z,22.94
2023-08-08T11:36:18.206Z,22.59
2023-08-08T11:38:44.978Z,22.95
2023-08-08T11:41:12.204Z,22.19
2023-08-08T11:43:42.380Z,22.55
2023-08-08T11:46:16.435Z,22.83
2023-08-08T11:48:43.562Z,22.69
2023-08-08T11:51:11.116Z,22.76
2023-08-08T11:53:37.853Z,22.75
2023-08-08T11:56:05.115Z,21.83
2023-08-08T11:58:32.147Z,22.65
2023-08-08T12:00:59.038Z,22.90
2023-08-08T12:03:29.010Z,22.49
2023-08-08T12:05:55.714Z,22.34
2023-08-08T12:08:22.706Z,22.01
2023-08-08T12:10:54.411Z,21.93
2023-08-08T12:13:28.036Z,22.11
2023-08-08T12:15:56.372Z,22.10
2023-08-08T12:18:23.428Z,22.47
2023-08-08T12:20:50.429Z,21.90
2023-08-08T12:23:17.184Z,22.05
2023-08-08T12:25:44.328Z,22.25
2023-08-08T12:28:11.446Z,22.35
2023-08-08T12:30:38.133Z,22.34
2023-08-08T12:33:04.963Z,22.38
2023-08-08T12:35:31.767Z,22.41
2023-08-08T12:37:58.456Z,22.25
2023-08-08T12:40:26.525Z,22.08
2023-08-08T12:42:53.249Z,22.46
2023-08-08T12:45:20.044Z,22.36
2023-08-08T12:47:46.886Z,22.56
2023-08-08T12:50:13.552Z,22.94
2023-08-08T12:52:40.579Z,22.11
2023-08-08T12:55:08.588Z,22.00
2023-08-08T12:57:35.409Z,22.44
2023-08-08T13:00:02.149Z,22.69
2023-08-08T13:02:28.962Z,22.91
2023-08-08T13:04:55.962Z,23.13
2023-08-08T13:07:22.688Z,22.87
2023-08-08T13:09:49.432Z,22.21
2023-08-08T13:12:16.381Z,22.52
2023-08-08T13:14:43.094Z,22.62
2023-08-08T13:17:10.799Z,22.04
2023-08-08T13:19:37.500Z,22.25
2023-08-08T13:22:04.266Z,21.92
2023-08-08T13:24:31.230Z,22.43
2023-08-08T13:26:57.932Z,22.48
2023-08-08T13:29:24.628Z,22.09
2023-08-08T13:31:51.348Z,22.11
2023-08-08T13:34:18.379Z,22.00
2023-08-08T13:36:44.992Z,22.36
2023-08-08T13:39:11.756Z,21.84
2023-08-08T13:41:38.536Z,22.06
2023-08-08T13:44:05.348Z,22.39
2023-08-08T13:46:32.103Z,22.74
2023-08-08T13:48:59.002Z,22.68
2023-08-08T13:51:25.697Z,21.99
2023-08-08T13:53:52.387Z,22.15
2023-08-08T13:56:19.379Z,21.98
2023-08-08T13:58:46.091Z,22.28
2023-08-08T14:01:12.816Z,22.09
2023-08-08T14:03:39.778Z,22.52
2023-08-08T14:06:07.472Z,22.16
2023-08-08T14:08:34.311Z,21.84
2023-08-08T14:11:01.090Z,21.71
2023-08-08T14:13:27.967Z,22.07
2023-08-08T14:15:54.752Z,21.98
2023-08-08T14:18:21.439Z,21.92
2023-08-08T14:20:48.156Z,21.81
2023-08-08T14:23:14.833Z,21.99
2023-08-08T14:25:42.951Z,21.94
2023-08-08T14:28:09.624Z,21.92
2023-08-08T14:30:36.386Z,22.04
2023-08-08T14:33:04.052Z,21.96
2023-08-08T14:35:30.941Z,21.59
2023-08-08T14:37:57.673Z,21.59
2023-08-08T14:40:24.356Z,21.63
2023-08-08T14:42:52.554Z,21.83
2023-08-08T14:45:19.512Z,22.00
2023-08-08T14:47:46.250Z,21.87
2023-08-08T14:50:12.953Z,21.90
2023-08-08T14:52:39.607Z,21.69
2023-08-08T14:55:06.885Z,21.63
2023-08-08T14:57:34.515Z,21.39
2023-08-08T15:00:04.970Z,21.23
2023-08-08T15:02:31.731Z,21.38
2023-08-08T15:04:58.506Z,21.46
2023-08-08T15:07:25.235Z,21.41
2023-08-08T15:09:52.561Z,21.24
2023-08-08T15:12:19.420Z,21.45
2023-08-08T15:14:46.253Z,21.49
2023-08-08T15:17:12.976Z,21.31
2023-08-08T15:19:39.680Z,21.37
2023-08-08T15:22:06.644Z,21.26
2023-08-08T15:24:35.226Z,21.28
2023-08-08T15:27:02.251Z,21.07
2023-08-08T15:29:29.266Z,21.01
2023-08-08T15:31:55.970Z,20.92
2023-08-08T15:34:22.735Z,20.96
2023-08-08T15:36:50.416Z,20.95
2023-08-08T15:39:17.136Z,20.67
2023-08-08T15:41:44.880Z,20.75
2023-08-08T15:44:11.644Z,20.74
2023-08-08T15:46:38.341Z,20.63
2023-08-08T15:49:07.727Z,20.61
2023-08-08T15:51:34.399Z,20.49
2023-08-08T15:54:01.127Z,20.42
2023-08-08T15:56:27.804Z,20.48
2023-08-08T15:58:54.558Z,20.36
2023-08-08T16:01:21.266Z,20.47
2023-08-08T16:03:48.045Z,20.39
2023-08-08T16:06:14.924Z,20.36
2023-08-08T16:08:41.671Z,20.27
2023-08-08T16:11:08.441Z,20.52
2023-08-08T16:13:35.242Z,20.43
2023-08-08T16:16:02.200Z,20.42
2023-08-08T16:18:30.582Z,20.34
2023-08-08T16:20:57.274Z,20.05
2023-08-08T16:23:23.919Z,20.18
2023-08-08T16:25:50.712Z,20.24
2023-08-08T16:28:17.416Z,20.21
2023-08-08T16:30:44.232Z,20.21
2023-08-08T16:33:17.104Z,20.29
2023-08-08T16:35:43.915Z,20.33
2023-08-08T16:38:13.106Z,20.23
2023-08-08T16:40:39.891Z,20.23
2023-08-08T16:43:06.811Z,20.30
2023-08-08T16:45:33.596Z,20.30
2023-08-08T16:48:00.286Z,20.11
2023-08-08T16:50:26.961Z,19.62
2023-08-08T16:52:53.674Z,19.59
2023-08-08T16:55:20.514Z,19.46
2023-08-08T16:57:47.396Z,19.22
2023-08-08T17:00:15.640Z,18.89
2023-08-08T17:02:42.553Z,18.38
2023-08-08T17:05:09.416Z,18.16
2023-08-08T17:07:36.150Z,17.97
2023-08-08T17:10:02.808Z,17.81
2023-08-08T17:12:29.598Z,17.66
2023-08-08T17:14:56.471Z,17.39
2023-08-08T17:17:23.811Z,17.31
2023-08-08T17:19:50.549Z,17.25
2023-08-08T17:22:17.332Z,17.29
2023-08-08T17:24:44.034Z,17.48
2023-08-08T17:27:11.035Z,17.61
2023-08-08T17:29:37.797Z,17.62
2023-08-08T17:32:04.880Z,17.56
2023-08-08T17:34:31.900Z,17.56
2023-08-08T17:36:58.572Z,17.43
2023-08-08T17:39:25.473Z,17.35
2023-08-08T17:41:52.468Z,17.38
2023-08-08T17:44:19.208Z,17.23
2023-08-08T17:46:45.996Z,17.18
2023-08-08T17:49:12.693Z,17.24
2023-08-08T17:51:39.406Z,17.26
2023-08-08T17:54:06.724Z,17.32
2023-08-08T17:56:33.631Z,17.31
2023-08-08T17:59:00.333Z,17.34
2023-08-08T18:01:28.068Z,17.33
2023-08-08T18:03:54.884Z,17.35
2023-08-08T18:06:23.068Z,17.32
2023-08-08T18:08:49.820Z,17.41
2023-08-08T18:11:16.917Z,17.35
2023-08-08T18:13:43.754Z,17.31
2023-08-08T18:16:10.547Z,17.32
2023-08-08T18:18:37.231Z,17.53
2023-08-08T18:21:03.976Z,17.66
2023-08-08T18:23:30.891Z,17.65
2023-08-08T18:25:58.089Z,17.71
2023-08-08T18:28:25.458Z,17.66
2023-08-08T18:30:52.225Z,17.89
2023-08-08T18:33:19.312Z,17.90
2023-08-08T18:35:45.967Z,18.08
2023-08-08T18:38:12.774Z,18.18
2023-08-08T18:40:39.459Z,18.19
2023-08-08T18:43:06.140Z,18.24
2023-08-08T18:45:33.292Z,18.36
2023-08-08T18:48:00.078Z,18.30
2023-08-08T18:50:26.859Z,18.33
2023-08-08T18:52:53.803Z,18.26
2023-08-08T18:55:20.526Z,18.32
2023-08-08T18:57:47.338Z,18.30
2023-08-08T19:00:14.352Z,18.33
2023-08-08T19:02:41.236Z,18.20
2023-08-08T19:05:09.339Z,18.14
2023-08-08T19:07:36.221Z,18.18
2023-08-08T19:10:03.240Z,18.22
2023-08-08T19:12:29.923Z,18.27
2023-08-08T19:14:56.553Z,18.18
2023-08-08T19:17:23.396Z,18.16
2023-08-08T19:19:50.196Z,18.12
2023-08-08T19:22:16.856Z,18.16
2023-08-08T19:24:43.780Z,18.08
2023-08-08T19:27:10.646Z,18.17
2023-08-08T19:29:38.171Z,18.15
2023-08-08T19:32:05.085Z,18.14
2023-08-08T19:34:31.752Z,18.18
2023-08-08T19:36:58.485Z,18.15
2023-08-08T19:39:25.285Z,18.10
2023-08-08T19:41:52.830Z,18.08
2023-08-08T19:44:19.858Z,18.14
2023-08-08T19:46:46.585Z,18.13
2023-08-08T19:49:13.371Z,18.11
2023-08-08T19:51:40.386Z,18.14
2023-08-08T19:54:07.235Z,18.11
2023-08-08T19:56:34.042Z,18.06
2023-08-08T19:59:00.786Z,18.06
2023-08-08T20:01:28.176Z,17.94
2023-08-08T20:03:54.945Z,18.03
2023-08-08T20:06:21.586Z,17.97
2023-08-08T20:08:48.608Z,17.87
2023-08-08T20:11:16.969Z,17.95
2023-08-08T20:13:43.738Z,17.95
2023-08-08T20:16:10.447Z,17.94
2023-08-08T20:18:37.266Z,17.99
2023-08-08T20:21:04.075Z,17.90
2023-08-08T20:23:30.895Z,18.01
2023-08-08T20:25:57.554Z,17.97
2023-08-08T20:28:24.193Z,17.87
2023-08-08T20:30:52.457Z,17.87
2023-08-08T20:33:19.209Z,17.90
2023-08-08T20:35:47.133Z,17.98
2023-08-08T20:38:14.042Z,18.01
2023-08-08T20:40:41.011Z,18.05
2023-08-08T20:43:07.803Z,18.09
2023-08-08T20:45:34.608Z,18.02
2023-08-08T20:48:01.939Z,18.00
2023-08-08T20:50:28.742Z,18.04
2023-08-08T20:52:55.399Z,17.99
2023-08-08T20:55:22.090Z,18.03
2023-08-08T20:57:48.868Z,17.99
2023-08-08T21:00:15.693Z,17.92
2023-08-08T21:02:43.468Z,17.92
2023-08-08T21:05:10.680Z,17.83
2023-08-08T21:07:37.503Z,17.78
2023-08-08T21:10:04.325Z,17.63
2023-08-08T21:12:30.997Z,17.51
2023-08-08T21:15:00.663Z,17.52
2023-08-08T21:17:28.257Z,17.66
2023-08-08T21:19:54.974Z,17.68
2023-08-08T21:22:21.747Z,17.69
2023-08-08T21:24:48.424Z,17.75
2023-08-08T21:27:15.113Z,17.73
2023-08-08T21:29:44.935Z,17.59
2023-08-08T21:32:12.235Z,17.58
2023-08-08T21:34:39.027Z,17.58
2023-08-08T21:37:05.668Z,17.48
2023-08-08T21:39:32.342Z,17.41
2023-08-08T21:41:59.032Z,17.43
2023-08-08T21:44:25.705Z,17.39
2023-08-08T21:46:52.971Z,17.33
2023-08-08T21:49:19.917Z,17.31
2023-08-08T21:51:47.222Z,17.26
2023-08-08T21:54:14.324Z,17.25
2023-08-08T21:56:46.058Z,17.25
2023-08-08T21:59:12.914Z,17.00
2023-08-08T22:01:39.617Z,17.02
2023-08-08T22:04:07.299Z,17.11
2023-08-08T22:06:34.318Z,17.03
2023-08-08T22:09:02.223Z,17.00
2023-08-08T22:11:29.081Z,16.99
2023-08-08T22:13:55.872Z,16.98
2023-08-08T22:16:22.601Z,16.89
2023-08-08T22:18:49.383Z,16.91
2023-08-08T22:21:16.096Z,16.91
2023-08-08T22:23:42.834Z,16.85
2023-08-08T22:26:09.482Z,16.72
2023-08-08T22:28:36.144Z,16.70
2023-08-08T22:31:02.913Z,16.67
2023-08-08T22:33:29.627Z,16.77
2023-08-08T22:35:56.366Z,16.69
2023-08-08T22:38:23.071Z,16.66
2023-08-08T22:40:49.757Z,16.68
2023-08-08T22:43:16.531Z,16.71
2023-08-08T22:45:43.368Z,16.66
2023-08-08T22:48:10.098Z,16.63
2023-08-08T22:50:42.025Z,16.50
2023-08-08T22:53:08.823Z,16.32
2023-08-08T22:55:35.960Z,16.56
2023-08-08T22:58:02.760Z,16.38
2023-08-08T23:00:29.621Z,16.40
2023-08-08T23:02:56.700Z,16.41
2023-08-08T23:05:23.692Z,16.41
2023-08-08T23:07:50.406Z,16.34
2023-08-08T23:10:17.145Z,16.51
2023-08-08T23:12:43.824Z,16.35
2023-08-08T23:15:10.787Z,16.32
2023-08-08T23:17:37.591Z,16.13
2023-08-08T23:20:05.367Z,16.25
2023-08-08T23:22:32.044Z,16.07
2023-08-08T23:24:58.703Z,16.13
2023-08-08T23:27:25.417Z,16.20
2023-08-08T23:29:52.096Z,16.24
2023-08-08T23:32:18.785Z,16.12
2023-08-08T23:34:45.434Z,15.95
2023-08-08T23:37:20.401Z,16.05
2023-08-08T23:39:48.026Z,16.06
2023-08-08T23:42:16.174Z,15.97
2023-08-08T23:44:43.093Z,15.99
2023-08-08T23:47:10.224Z,16.06
2023-08-08T23:49:36.924Z,15.99
2023-08-08T23:52:03.759Z,15.97
2023-08-08T23:54:30.914Z,16.00
2023-08-08T23:56:57.590Z,15.95
2023-08-08T23:59:24.305Z,15.95
